createdAt,value
2018-03-06T00:00:14.183Z,95586.72
2018-03-06T00:01:20.231Z,95590.30
2018-03-06T00:02:26.103Z,95584.16
2018-03-06T00:03:31.731Z,95592.25
2018-03-06T00:04:37.265Z,95588.84
2018-03-06T00:05:43.033Z,95589.19
2018-03-06T00:06:48.837Z,95591.66
2018-03-06T00:07:54.649Z,95596.31
2018-03-06T00:08:59.987Z,95594.01
2018-03-06T00:10:05.498Z,95587.22
2018-03-06T00:11:10.708Z,95589.48
2018-03-06T00:12:16.131Z,95587.53
2018-03-06T00:13:21.636Z,95589.63
2018-03-06T00:14:27.723Z,95590.10
2018-03-06T00:15:33.684Z,95592.14
2018-03-06T00:16:39.462Z,95586.04
2018-03-06T00:17:45.313Z,95589.45
2018-03-06T00:18:51.056Z,95584.63
2018-03-06T00:19:56.698Z,95588.47
2018-03-06T00:21:03.055Z,95592.53
2018-03-06T00:22:09.332Z,95590.70
2018-03-06T00:23:15.731Z,95585.61
2018-03-06T00:24:22.493Z,95588.09
2018-03-06T00:25:28.847Z,95594.80
2018-03-06T00:26:35.107Z,95586.49
2018-03-06T00:27:42.410Z,95590.82
2018-03-06T00:28:48.206Z,95588.92
2018-03-06T00:29:53.836Z,95587.73
2018-03-06T00:31:00.668Z,95582.13
2018-03-06T00:32:06.291Z,95585.27
2018-03-06T00:33:12.118Z,95582.88
2018-03-06T00:34:20.083Z,95583.37
2018-03-06T00:35:27.315Z,95582.58
2018-03-06T00:36:33.712Z,95584.34
2018-03-06T00:37:39.584Z,95584.08
2018-03-06T00:38:45.755Z,95584.77
2018-03-06T00:39:52.248Z,95581.45
2018-03-06T00:40:58.241Z,95585.29
2018-03-06T00:42:03.604Z,95584.80
2018-03-06T00:43:09.228Z,95583.13
2018-03-06T00:44:14.954Z,95587.87
2018-03-06T00:45:20.376Z,95583.97
2018-03-06T00:46:26.392Z,95585.66
2018-03-06T00:47:32.188Z,95584.50
2018-03-06T00:48:37.948Z,95581.58
2018-03-06T00:49:43.702Z,95579.59
2018-03-06T00:50:49.442Z,95580.39
2018-03-06T00:51:55.428Z,95579.45
2018-03-06T00:53:01.432Z,95578.40
2018-03-06T00:54:06.989Z,95580.67
2018-03-06T00:55:13.336Z,95579.11
2018-03-06T00:56:19.383Z,95578.75
2018-03-06T00:57:25.028Z,95573.00
2018-03-06T00:58:31.392Z,95581.98
2018-03-06T00:59:38.052Z,95573.27
2018-03-06T01:00:45.091Z,95580.85
2018-03-06T01:01:53.085Z,95574.92
2018-03-06T01:02:59.714Z,95575.67
2018-03-06T01:04:05.522Z,95573.00
2018-03-06T01:05:11.190Z,95578.93
2018-03-06T01:06:17.542Z,95573.33
2018-03-06T01:07:23.363Z,95576.66
2018-03-06T01:08:28.958Z,95574.89
2018-03-06T01:09:34.624Z,95579.52
2018-03-06T01:10:40.998Z,95579.66
2018-03-06T01:11:48.195Z,95582.39
2018-03-06T01:12:55.412Z,95584.47
2018-03-06T01:14:01.962Z,95580.76
2018-03-06T01:15:07.875Z,95583.98
2018-03-06T01:16:13.453Z,95575.83
2018-03-06T01:17:19.263Z,95578.98
2018-03-06T01:18:25.697Z,95576.07
2018-03-06T01:19:31.544Z,95580.14
2018-03-06T01:20:37.049Z,95577.41
2018-03-06T01:21:42.768Z,95578.47
2018-03-06T01:22:48.442Z,95578.00
2018-03-06T01:23:54.335Z,95577.08
2018-03-06T01:25:00.375Z,95578.17
2018-03-06T01:26:06.207Z,95577.17
2018-03-06T01:27:12.337Z,95576.68
2018-03-06T01:28:18.407Z,95573.69
2018-03-06T01:29:24.936Z,95575.55
2018-03-06T01:30:31.343Z,95569.97
2018-03-06T01:31:37.948Z,95576.60
2018-03-06T01:32:44.290Z,95570.88
2018-03-06T01:33:51.097Z,95565.05
2018-03-06T01:34:56.961Z,95568.80
2018-03-06T01:36:02.351Z,95570.20
2018-03-06T01:37:08.313Z,95565.70
2018-03-06T01:38:14.046Z,95561.77
2018-03-06T01:39:19.640Z,95562.91
2018-03-06T01:40:25.127Z,95563.30
2018-03-06T01:41:30.792Z,95552.67
2018-03-06T01:42:37.653Z,95553.80
2018-03-06T01:43:43.374Z,95553.09
2018-03-06T01:44:48.859Z,95554.73
2018-03-06T01:45:54.331Z,95551.44
2018-03-06T01:46:59.633Z,95547.25
2018-03-06T01:48:05.316Z,95546.46
2018-03-06T01:49:11.190Z,95549.04
2018-03-06T01:50:16.958Z,95541.95
2018-03-06T01:51:22.464Z,95537.84
2018-03-06T01:52:28.269Z,95543.14
2018-03-06T01:53:33.387Z,95541.95
2018-03-06T01:54:38.972Z,95528.47
2018-03-06T01:55:45.712Z,95525.62
2018-03-06T01:56:53.227Z,95523.82
2018-03-06T01:57:59.992Z,95517.94
2018-03-06T01:59:05.878Z,95520.59
2018-03-06T02:00:12.025Z,95527.13
2018-03-06T02:01:17.826Z,95530.58
2018-03-06T02:02:23.707Z,95530.42
2018-03-06T02:03:28.906Z,95528.51
2018-03-06T02:04:34.269Z,95523.45
2018-03-06T02:05:40.295Z,95520.28
2018-03-06T02:06:45.886Z,95517.59
2018-03-06T02:07:51.568Z,95525.49
2018-03-06T02:08:57.601Z,95519.66
2018-03-06T02:10:03.113Z,95519.09
2018-03-06T02:11:08.724Z,95520.91
2018-03-06T02:12:14.237Z,95517.35
2018-03-06T02:13:19.510Z,95513.45
2018-03-06T02:14:24.943Z,95514.66
2018-03-06T02:15:30.608Z,95515.03
2018-03-06T02:16:36.075Z,95514.23
2018-03-06T02:17:41.456Z,95514.88
2018-03-06T02:18:46.842Z,95508.98
2018-03-06T02:19:52.385Z,95506.77
2018-03-06T02:20:57.795Z,95506.25
2018-03-06T02:22:03.895Z,95508.45
2018-03-06T02:23:09.274Z,95513.20
2018-03-06T02:24:14.403Z,95509.94
2018-03-06T02:25:19.413Z,95509.30
2018-03-06T02:26:25.407Z,95511.72
2018-03-06T02:27:31.096Z,95507.36
2018-03-06T02:28:36.368Z,95509.05
2018-03-06T02:29:41.869Z,95504.50
2018-03-06T02:30:47.354Z,95503.13
2018-03-06T02:31:52.843Z,95501.41
2018-03-06T02:32:58.217Z,95497.35
2018-03-06T02:34:04.006Z,95497.99
2018-03-06T02:35:09.355Z,95502.28
2018-03-06T02:36:14.658Z,95498.97
2018-03-06T02:37:19.876Z,95498.69
2018-03-06T02:38:25.411Z,95496.30
2018-03-06T02:39:30.439Z,95496.56
2018-03-06T02:40:35.787Z,95500.31
2018-03-06T02:41:41.056Z,95497.36
2018-03-06T02:42:46.681Z,95498.15
2018-03-06T02:43:52.828Z,95497.05
2018-03-06T02:44:58.389Z,95499.80
2018-03-06T02:46:08.438Z,95492.23
2018-03-06T02:47:17.653Z,95495.23
2018-03-06T02:48:23.368Z,95491.74
2018-03-06T02:49:29.284Z,95493.83
2018-03-06T02:50:35.137Z,95498.55
2018-03-06T02:51:40.872Z,95498.06
2018-03-06T02:52:47.805Z,95491.02
2018-03-06T02:53:52.919Z,95490.96
2018-03-06T02:54:59.395Z,95486.59
2018-03-06T02:56:04.370Z,95485.05
2018-03-06T02:57:10.592Z,95482.49
2018-03-06T02:58:18.050Z,95476.88
2018-03-06T02:59:23.392Z,95481.20
2018-03-06T03:00:29.261Z,95471.19
2018-03-06T03:01:34.584Z,95476.84
2018-03-06T03:02:39.706Z,95472.92
2018-03-06T03:03:44.781Z,95469.43
2018-03-06T03:04:49.875Z,95467.00
2018-03-06T03:05:54.895Z,95472.92
2018-03-06T03:07:00.003Z,95469.03
2018-03-06T03:08:05.360Z,95464.13
2018-03-06T03:09:10.725Z,95463.29
2018-03-06T03:10:15.939Z,95459.58
2018-03-06T03:11:20.972Z,95464.27
2018-03-06T03:12:27.442Z,95465.89
2018-03-06T03:13:32.508Z,95462.05
2018-03-06T03:14:37.645Z,95466.03
2018-03-06T03:15:43.452Z,95466.78
2018-03-06T03:16:48.938Z,95470.97
2018-03-06T03:17:54.776Z,95470.89
2018-03-06T03:19:00.393Z,95473.57
2018-03-06T03:20:05.912Z,95462.54
2018-03-06T03:21:11.062Z,95463.91
2018-03-06T03:22:16.289Z,95468.28
2018-03-06T03:23:21.455Z,95460.25
2018-03-06T03:24:27.282Z,95465.63
2018-03-06T03:25:32.551Z,95464.00
2018-03-06T03:26:37.761Z,95469.52
2018-03-06T03:27:42.994Z,95470.75
2018-03-06T03:28:48.414Z,95465.80
2018-03-06T03:29:53.664Z,95465.58
2018-03-06T03:31:00.983Z,95466.64
2018-03-06T03:32:05.997Z,95466.07
2018-03-06T03:33:11.370Z,95465.59
2018-03-06T03:34:16.809Z,95459.19
2018-03-06T03:35:22.543Z,95457.51
2018-03-06T03:36:28.545Z,95461.58
2018-03-06T03:37:33.587Z,95458.39
2018-03-06T03:38:38.897Z,95460.33
2018-03-06T03:39:44.759Z,95457.32
2018-03-06T03:40:50.083Z,95456.77
2018-03-06T03:41:55.800Z,95458.73
2018-03-06T03:43:01.773Z,95452.81
2018-03-06T03:44:06.888Z,95465.09
2018-03-06T03:45:12.245Z,95464.58
2018-03-06T03:46:17.484Z,95461.62
2018-03-06T03:47:22.923Z,95456.52
2018-03-06T03:48:28.522Z,95458.80
2018-03-06T03:49:34.267Z,95460.45
2018-03-06T03:50:39.256Z,95455.78
2018-03-06T03:51:44.739Z,95456.25
2018-03-06T03:52:49.786Z,95453.20
2018-03-06T03:53:55.721Z,95457.03
2018-03-06T03:55:02.241Z,95461.00
2018-03-06T03:56:07.807Z,95456.19
2018-03-06T03:57:12.851Z,95453.27
2018-03-06T03:58:18.367Z,95451.88
2018-03-06T03:59:23.283Z,95454.67
2018-03-06T04:00:28.555Z,95452.09
2018-03-06T04:01:34.601Z,95451.33
2018-03-06T04:02:39.822Z,95451.99
2018-03-06T04:03:45.095Z,95451.91
2018-03-06T04:04:50.415Z,95449.97
2018-03-06T04:05:56.232Z,95451.49
2018-03-06T04:07:01.511Z,95454.26
2018-03-06T04:08:07.466Z,95447.33
2018-03-06T04:09:12.448Z,95449.17
2018-03-06T04:10:17.920Z,95447.94
2018-03-06T04:11:23.217Z,95448.59
2018-03-06T04:12:29.359Z,95449.73
2018-03-06T04:13:34.527Z,95446.66
2018-03-06T04:14:39.780Z,95442.22
2018-03-06T04:15:45.384Z,95440.28
2018-03-06T04:16:50.583Z,95438.57
2018-03-06T04:17:56.176Z,95436.80
2018-03-06T04:19:02.176Z,95439.14
2018-03-06T04:20:07.731Z,95442.15
2018-03-06T04:21:12.577Z,95444.72
2018-03-06T04:22:17.665Z,95443.97
2018-03-06T04:23:22.988Z,95437.94
2018-03-06T04:24:27.953Z,95446.37
2018-03-06T04:25:33.327Z,95435.75
2018-03-06T04:26:39.470Z,95437.73
2018-03-06T04:27:45.431Z,95433.64
2018-03-06T04:28:50.284Z,95434.42
2018-03-06T04:29:55.463Z,95441.00
2018-03-06T04:31:00.647Z,95439.41
2018-03-06T04:32:05.639Z,95440.64
2018-03-06T04:33:11.692Z,95432.29
2018-03-06T04:34:16.668Z,95434.20
2018-03-06T04:35:21.593Z,95442.49
2018-03-06T04:36:26.817Z,95435.39
2018-03-06T04:37:32.442Z,95432.75
2018-03-06T04:38:38.352Z,95436.63
2018-03-06T04:39:44.087Z,95436.06
2018-03-06T04:40:49.331Z,95432.86
2018-03-06T04:41:55.131Z,95434.98
2018-03-06T04:43:00.137Z,95433.56
2018-03-06T04:44:05.247Z,95429.91
2018-03-06T04:45:10.495Z,95431.66
2018-03-06T04:46:16.534Z,95435.70
2018-03-06T04:47:22.016Z,95432.39
2018-03-06T04:48:27.361Z,95432.95
2018-03-06T04:49:32.910Z,95431.52
2018-03-06T04:50:38.567Z,95432.27
2018-03-06T04:51:43.427Z,95426.70
2018-03-06T04:52:49.434Z,95430.09
2018-03-06T04:53:54.695Z,95427.61
2018-03-06T04:55:00.336Z,95428.46
2018-03-06T04:56:06.095Z,95431.11
2018-03-06T04:57:11.338Z,95426.30
2018-03-06T04:58:16.395Z,95428.55
2018-03-06T04:59:21.857Z,95429.80
2018-03-06T05:00:26.859Z,95426.61
2018-03-06T05:01:32.125Z,95422.17
2018-03-06T05:02:37.749Z,95423.85
2018-03-06T05:03:42.888Z,95423.27
2018-03-06T05:04:48.503Z,95425.97
2018-03-06T05:05:54.237Z,95421.64
2018-03-06T05:06:59.214Z,95423.62
2018-03-06T05:08:04.904Z,95426.92
2018-03-06T05:09:10.171Z,95430.31
2018-03-06T05:10:15.416Z,95426.45
2018-03-06T05:11:21.340Z,95428.92
2018-03-06T05:12:26.785Z,95427.35
2018-03-06T05:13:32.101Z,95429.91
2018-03-06T05:14:37.340Z,95423.28
2018-03-06T05:15:42.627Z,95426.81
2018-03-06T05:16:48.457Z,95424.83
2018-03-06T05:17:53.646Z,95431.04
2018-03-06T05:19:00.124Z,95427.73
2018-03-06T05:20:05.453Z,95428.15
2018-03-06T05:21:11.318Z,95431.20
2018-03-06T05:22:17.155Z,95429.13
2018-03-06T05:23:22.523Z,95431.73
2018-03-06T05:24:27.825Z,95434.69
2018-03-06T05:25:33.616Z,95433.81
2018-03-06T05:26:39.002Z,95439.50
2018-03-06T05:27:44.224Z,95436.59
2018-03-06T05:28:49.734Z,95438.31
2018-03-06T05:29:55.124Z,95436.52
2018-03-06T05:31:00.643Z,95437.66
2018-03-06T05:32:06.635Z,95435.09
2018-03-06T05:33:12.359Z,95439.91
2018-03-06T05:34:17.742Z,95440.13
2018-03-06T05:35:23.475Z,95441.28
2018-03-06T05:36:29.614Z,95435.90
2018-03-06T05:37:34.821Z,95438.33
2018-03-06T05:38:40.670Z,95437.09
2018-03-06T05:39:46.003Z,95443.61
2018-03-06T05:40:51.815Z,95440.91
2018-03-06T05:41:57.287Z,95438.75
2018-03-06T05:43:02.710Z,95436.14
2018-03-06T05:44:08.012Z,95440.72
2018-03-06T05:45:13.878Z,95440.02
2018-03-06T05:46:19.351Z,95438.56
2018-03-06T05:47:24.921Z,95439.98
2018-03-06T05:48:30.757Z,95442.91
2018-03-06T05:49:36.262Z,95440.92
2018-03-06T05:50:41.759Z,95442.46
2018-03-06T05:51:47.537Z,95441.44
2018-03-06T05:52:53.168Z,95436.94
2018-03-06T05:53:59.119Z,95442.72
2018-03-06T05:55:04.869Z,95438.97
2018-03-06T05:56:10.758Z,95444.35
2018-03-06T05:57:16.787Z,95443.86
2018-03-06T05:58:23.642Z,95438.04
2018-03-06T05:59:29.905Z,95439.75
2018-03-06T06:00:37.283Z,95433.03
2018-03-06T06:01:43.886Z,95439.28
2018-03-06T06:02:50.571Z,95439.07
2018-03-06T06:03:56.603Z,95437.05
2018-03-06T06:05:02.110Z,95439.02
2018-03-06T06:06:07.677Z,95438.59
2018-03-06T06:07:13.092Z,95438.92
2018-03-06T06:08:18.730Z,95441.08
2018-03-06T06:09:24.401Z,95441.22
2018-03-06T06:10:32.166Z,95447.95
2018-03-06T06:11:38.197Z,95443.39
2018-03-06T06:12:43.961Z,95449.39
2018-03-06T06:13:50.258Z,95448.22
2018-03-06T06:14:57.489Z,95454.13
2018-03-06T06:16:03.666Z,95454.55
2018-03-06T06:17:11.520Z,95455.78
2018-03-06T06:18:17.730Z,95461.48
2018-03-06T06:19:23.622Z,95466.24
2018-03-06T06:20:29.200Z,95457.46
2018-03-06T06:21:35.713Z,95457.39
2018-03-06T06:22:41.384Z,95460.53
2018-03-06T06:23:47.400Z,95461.47
2018-03-06T06:24:52.984Z,95465.30
2018-03-06T06:25:58.765Z,95466.32
2018-03-06T06:27:04.624Z,95466.59
2018-03-06T06:28:10.299Z,95461.25
2018-03-06T06:29:15.752Z,95462.17
2018-03-06T06:30:22.161Z,95466.32
2018-03-06T06:31:27.866Z,95468.04
2018-03-06T06:32:34.047Z,95469.34
2018-03-06T06:33:40.131Z,95470.70
2018-03-06T06:34:45.992Z,95470.09
2018-03-06T06:35:53.088Z,95467.38
2018-03-06T06:37:00.115Z,95469.38
2018-03-06T06:38:05.867Z,95469.16
2018-03-06T06:39:12.227Z,95469.47
2018-03-06T06:40:18.348Z,95471.23
2018-03-06T06:41:23.837Z,95474.32
2018-03-06T06:42:29.553Z,95468.72
2018-03-06T06:43:35.617Z,95471.06
2018-03-06T06:44:41.040Z,95469.32
2018-03-06T06:45:46.628Z,95467.55
2018-03-06T06:46:52.717Z,95468.84
2018-03-06T06:47:58.295Z,95466.97
2018-03-06T06:49:04.069Z,95469.93
2018-03-06T06:50:10.019Z,95470.50
2018-03-06T06:51:15.709Z,95476.48
2018-03-06T06:52:21.489Z,95478.77
2018-03-06T06:53:27.154Z,95473.31
2018-03-06T06:54:32.511Z,95478.59
2018-03-06T06:55:38.023Z,95478.88
2018-03-06T06:56:44.036Z,95478.36
2018-03-06T06:57:49.854Z,95475.97
2018-03-06T06:58:56.351Z,95476.53
2018-03-06T07:00:02.469Z,95480.35
2018-03-06T07:01:11.049Z,95480.12
2018-03-06T07:02:17.353Z,95487.20
2018-03-06T07:03:23.703Z,95489.80
2018-03-06T07:04:29.613Z,95490.42
2018-03-06T07:05:35.409Z,95487.16
2018-03-06T07:06:41.491Z,95483.68
2018-03-06T07:07:47.925Z,95486.13
2018-03-06T07:08:53.464Z,95488.79
2018-03-06T07:09:59.672Z,95487.00
2018-03-06T08:28:56.843Z,95478.77
2018-03-06T08:30:19.164Z,95482.02
2018-03-06T08:34:32.362Z,95480.02
2018-03-06T08:35:37.809Z,95477.20
2018-03-06T08:36:43.141Z,95479.56
2018-03-06T08:37:48.500Z,95474.09
2018-03-06T08:38:54.152Z,95480.77
2018-03-06T08:39:59.603Z,95482.05
2018-03-06T08:41:05.729Z,95482.68
2018-03-06T08:42:11.001Z,95480.28
2018-03-06T08:43:16.550Z,95478.97
2018-03-06T08:44:22.099Z,95476.66
2018-03-06T08:45:27.630Z,95478.34
2018-03-06T08:46:33.274Z,95468.73
2018-03-06T08:47:39.130Z,95475.03
2018-03-06T08:48:44.700Z,95471.28
2018-03-06T08:49:50.318Z,95467.57
2018-03-06T08:50:55.725Z,95469.55
2018-03-06T08:52:01.366Z,95462.47
2018-03-06T08:53:06.921Z,95466.50
2018-03-06T08:54:12.771Z,95461.27
2018-03-06T08:55:18.487Z,95462.94
2018-03-06T08:56:24.162Z,95464.13
2018-03-06T08:57:29.740Z,95461.30
2018-03-06T08:58:35.466Z,95459.81
2018-03-06T08:59:41.029Z,95467.23
2018-03-06T09:00:46.956Z,95464.41
2018-03-06T09:01:53.126Z,95465.06
2018-03-06T09:02:58.751Z,95465.19
2018-03-06T09:04:04.619Z,95463.50
2018-03-06T09:05:10.017Z,95462.41
2018-03-06T09:06:15.538Z,95463.66
2018-03-06T09:07:21.836Z,95461.16
2018-03-06T09:08:28.777Z,95459.95
2018-03-06T09:09:36.069Z,95466.27
2018-03-06T09:10:42.271Z,95457.80
2018-03-06T09:11:49.078Z,95459.84
2018-03-06T09:12:54.981Z,95464.27
2018-03-06T09:14:01.205Z,95461.58
2018-03-06T09:15:07.697Z,95464.56
2018-03-06T09:16:13.505Z,95461.73
2018-03-06T09:17:18.986Z,95460.16
2018-03-06T09:18:24.345Z,95459.92
2018-03-06T09:19:30.027Z,95454.53
2018-03-06T09:20:36.061Z,95456.59
2018-03-06T09:21:41.582Z,95451.66
2018-03-06T09:22:47.038Z,95451.05
2018-03-06T09:23:52.483Z,95449.98
2018-03-06T09:24:58.213Z,95452.09
2018-03-06T09:26:04.001Z,95455.62
2018-03-06T09:27:09.229Z,95451.55
2018-03-06T09:28:14.493Z,95458.44
2018-03-06T09:29:19.801Z,95458.59
2018-03-06T09:30:25.220Z,95454.14
2018-03-06T09:31:30.619Z,95451.78
2018-03-06T09:32:36.526Z,95458.37
2018-03-06T09:33:41.951Z,95458.27
2018-03-06T09:34:47.347Z,95454.38
2018-03-06T09:35:52.785Z,95458.50
2018-03-06T09:36:58.222Z,95451.31
2018-03-06T09:38:03.793Z,95458.64
2018-03-06T09:39:09.576Z,95458.06
2018-03-06T09:40:15.287Z,95457.84
2018-03-06T09:41:21.380Z,95456.97
2018-03-06T09:42:27.629Z,95460.30
2018-03-06T09:43:33.349Z,95463.40
2018-03-06T09:44:39.032Z,95459.00
2018-03-06T09:45:45.481Z,95459.19
2018-03-06T09:46:51.268Z,95461.43
2018-03-06T09:47:58.656Z,95457.59
2018-03-06T09:49:04.510Z,95455.36
2018-03-06T09:50:10.812Z,95458.66
2018-03-06T09:51:16.918Z,95455.62
2018-03-06T09:52:24.672Z,95461.89
2018-03-06T09:53:30.488Z,95457.27
2018-03-06T09:54:36.215Z,95455.61
2018-03-06T09:55:44.641Z,95454.47
2018-03-06T09:56:50.739Z,95456.20
2018-03-06T09:57:59.291Z,95456.04
2018-03-06T09:59:06.778Z,95452.56
2018-03-06T10:00:13.115Z,95450.94
2018-03-06T10:01:19.873Z,95452.34
2018-03-06T10:02:26.868Z,95453.42
2018-03-06T10:03:32.632Z,95451.28
2018-03-06T10:04:38.323Z,95450.39
2018-03-06T10:05:44.838Z,95454.66
2018-03-06T10:06:50.571Z,95451.68
2018-03-06T10:07:57.194Z,95452.97
2018-03-06T10:09:02.890Z,95451.61
2018-03-06T10:10:08.611Z,95454.30
2018-03-06T10:11:14.615Z,95455.14
2018-03-06T10:12:22.046Z,95450.75
2018-03-06T10:13:28.634Z,95454.58
2018-03-06T10:14:34.639Z,95453.41
2018-03-06T10:15:40.454Z,95449.96
2018-03-06T10:16:46.373Z,95448.40
2018-03-06T10:17:52.347Z,95445.09
2018-03-06T10:19:00.126Z,95442.95
2018-03-06T10:20:05.646Z,95447.81
2018-03-06T10:21:11.422Z,95453.57
2018-03-06T10:22:16.974Z,95451.13
2018-03-06T10:23:22.609Z,95449.98
2018-03-06T10:24:28.452Z,95446.11
2018-03-06T10:25:34.357Z,95449.16
2018-03-06T10:26:39.924Z,95445.58
2018-03-06T10:27:45.533Z,95450.96
2018-03-06T10:28:51.611Z,95445.01
2018-03-06T10:29:57.690Z,95441.08
2018-03-06T10:31:03.766Z,95446.88
2018-03-06T10:32:11.571Z,95445.59
2018-03-06T10:33:17.469Z,95439.05
2018-03-06T10:34:23.621Z,95444.23
2018-03-06T10:35:30.167Z,95447.70
2018-03-06T10:36:35.693Z,95446.59
2018-03-06T10:37:41.836Z,95445.20
2018-03-06T10:38:48.303Z,95442.94
2018-03-06T10:39:53.701Z,95443.63
2018-03-06T10:40:59.246Z,95443.48
2018-03-06T10:42:05.237Z,95446.69
2018-03-06T10:43:11.104Z,95442.70
2018-03-06T10:44:17.703Z,95436.44
2018-03-06T10:45:23.131Z,95436.64
2018-03-06T10:46:28.567Z,95429.73
2018-03-06T10:47:34.056Z,95434.17
2018-03-06T10:48:39.473Z,95428.14
2018-03-06T10:49:44.949Z,95432.80
2018-03-06T10:50:50.782Z,95431.41
2018-03-06T10:51:56.239Z,95432.92
2018-03-06T10:53:01.679Z,95428.77
2018-03-06T10:54:07.092Z,95427.47
2018-03-06T10:55:12.714Z,95427.27
2018-03-06T10:56:18.065Z,95434.73
2018-03-06T10:57:23.797Z,95428.58
2018-03-06T10:58:29.389Z,95426.77
2018-03-06T10:59:34.995Z,95427.88
2018-03-06T11:00:44.793Z,95421.84
2018-03-06T11:01:55.409Z,95428.61
2018-03-06T11:03:03.468Z,95425.29
2018-03-06T11:04:09.310Z,95419.53
2018-03-06T11:05:15.274Z,95422.31
2018-03-06T11:06:21.191Z,95432.78
2018-03-06T11:07:28.112Z,95423.55
2018-03-06T11:08:34.121Z,95422.92
2018-03-06T11:09:41.190Z,95425.67
2018-03-06T11:10:47.560Z,95419.00
2018-03-06T11:11:53.189Z,95419.31
2018-03-06T11:12:59.162Z,95420.42
2018-03-06T11:14:04.756Z,95423.02
2018-03-06T11:15:10.318Z,95418.85
2018-03-06T11:16:15.871Z,95416.06
2018-03-06T11:17:21.455Z,95420.84
2018-03-06T11:18:27.138Z,95417.58
2018-03-06T11:19:32.774Z,95418.55
2018-03-06T11:20:38.471Z,95428.07
2018-03-06T11:21:44.363Z,95416.54
2018-03-06T11:22:49.881Z,95414.77
2018-03-06T11:23:55.352Z,95419.16
2018-03-06T11:25:00.853Z,95414.13
2018-03-06T11:26:06.231Z,95406.11
2018-03-06T11:27:12.024Z,95408.09
2018-03-06T11:28:18.019Z,95413.03
2018-03-06T11:29:23.724Z,95407.59
2018-03-06T11:30:29.243Z,95406.48
2018-03-06T11:31:34.797Z,95406.28
2018-03-06T11:32:40.482Z,95412.07
2018-03-06T11:33:46.711Z,95410.69
2018-03-06T11:34:52.311Z,95402.98
2018-03-06T11:35:57.683Z,95404.53
2018-03-06T11:37:03.357Z,95402.66
2018-03-06T11:38:09.187Z,95405.75
2018-03-06T11:39:14.626Z,95400.70
2018-03-06T11:40:20.427Z,95399.41
2018-03-06T11:41:26.053Z,95402.89
2018-03-06T11:42:31.606Z,95402.58
2018-03-06T11:43:37.060Z,95402.03
2018-03-06T11:44:42.872Z,95403.03
2018-03-06T11:45:49.238Z,95403.19
2018-03-06T11:46:55.701Z,95406.37
2018-03-06T11:48:01.623Z,95407.62
2018-03-06T11:49:07.939Z,95407.50
2018-03-06T11:50:13.785Z,95404.09
2018-03-06T11:51:19.865Z,95406.49
2018-03-06T11:52:25.883Z,95410.83
2018-03-06T11:53:32.287Z,95410.63
2018-03-06T11:54:37.779Z,95401.03
2018-03-06T11:55:43.330Z,95399.33
2018-03-06T11:56:49.054Z,95399.77
2018-03-06T11:57:54.586Z,95404.07
2018-03-06T11:59:00.233Z,95397.06
2018-03-06T12:00:07.227Z,95401.02
2018-03-06T12:01:12.601Z,95405.33
2018-03-06T12:02:17.931Z,95397.52
2018-03-06T12:03:23.216Z,95401.53
2018-03-06T12:04:28.812Z,95390.95
2018-03-06T12:05:34.460Z,95392.25
2018-03-06T12:06:40.654Z,95391.94
2018-03-06T12:07:46.380Z,95387.44
2018-03-06T12:08:51.877Z,95384.49
2018-03-06T12:09:57.422Z,95389.46
2018-03-06T12:11:02.879Z,95388.92
2018-03-06T12:12:08.433Z,95382.83
2018-03-06T12:13:14.136Z,95386.48
2018-03-06T12:14:19.253Z,95386.67
2018-03-06T12:15:24.494Z,95379.05
2018-03-06T12:16:30.274Z,95382.86
2018-03-06T12:17:36.370Z,95381.25
2018-03-06T12:18:42.038Z,95376.76
2018-03-06T12:19:47.482Z,95379.36
2018-03-06T12:20:53.072Z,95364.42
2018-03-06T12:21:58.668Z,95375.14
2018-03-06T12:23:04.113Z,95375.38
2018-03-06T12:24:09.525Z,95368.25
2018-03-06T12:25:15.700Z,95371.02
2018-03-06T12:26:21.201Z,95370.16
2018-03-06T12:27:26.713Z,95375.61
2018-03-06T12:28:32.016Z,95366.59
2018-03-06T12:29:37.692Z,95364.55
2018-03-06T12:30:43.198Z,95364.48
2018-03-06T12:31:48.890Z,95359.58
2018-03-06T12:32:54.809Z,95368.48
2018-03-06T12:34:01.316Z,95366.27
2018-03-06T12:35:07.467Z,95362.36
2018-03-06T12:36:12.816Z,95366.64
2018-03-06T12:37:18.215Z,95362.80
2018-03-06T12:38:23.911Z,95359.41
2018-03-06T12:39:29.174Z,95366.20
2018-03-06T12:40:34.583Z,95369.03
2018-03-06T12:41:39.969Z,95369.51
2018-03-06T12:42:45.403Z,95368.95
2018-03-06T12:43:50.885Z,95371.00
2018-03-06T12:44:56.622Z,95364.75
2018-03-06T12:46:02.023Z,95361.52
2018-03-06T12:47:07.494Z,95361.73
2018-03-06T12:48:12.774Z,95364.61
2018-03-06T12:49:18.604Z,95361.59
2018-03-06T12:50:24.152Z,95361.81
2018-03-06T12:51:29.503Z,95356.02
2018-03-06T12:52:35.386Z,95353.09
2018-03-06T12:53:40.842Z,95352.66
2018-03-06T12:54:46.325Z,95359.91
2018-03-06T12:55:51.737Z,95352.61
2018-03-06T12:56:57.435Z,95353.90
2018-03-06T12:58:02.759Z,95351.97
2018-03-06T12:59:08.638Z,95351.36
2018-03-06T13:00:14.171Z,95353.61
2018-03-06T13:01:19.552Z,95346.58
2018-03-06T13:02:25.074Z,95345.53
2018-03-06T13:03:31.932Z,95344.58
2018-03-06T13:04:37.241Z,95349.16
2018-03-06T13:05:42.328Z,95347.30
2018-03-06T13:06:47.580Z,95350.92
2018-03-06T13:07:53.062Z,95348.44
2018-03-06T13:08:58.359Z,95348.91
2018-03-06T13:10:04.121Z,95345.38
2018-03-06T13:11:09.326Z,95351.91
2018-03-06T13:12:15.546Z,95354.98
2018-03-06T13:13:20.780Z,95349.40
2018-03-06T13:14:26.271Z,95352.23
2018-03-06T13:15:34.026Z,95349.30
2018-03-06T13:16:40.124Z,95344.74
2018-03-06T13:17:46.151Z,95340.30
2018-03-06T13:18:51.498Z,95344.45
2018-03-06T13:19:56.802Z,95340.02
2018-03-06T13:21:02.088Z,95346.09
2018-03-06T13:22:08.122Z,95339.44
2018-03-06T13:23:13.615Z,95342.72
2018-03-06T13:24:18.930Z,95338.49
2018-03-06T13:25:24.248Z,95342.40
2018-03-06T13:26:29.723Z,95343.33
2018-03-06T13:27:35.063Z,95341.38
2018-03-06T13:28:40.847Z,95335.84
2018-03-06T13:29:46.093Z,95341.20
2018-03-06T13:30:51.538Z,95337.36
2018-03-06T13:31:56.644Z,95338.98
2018-03-06T13:33:01.953Z,95338.89
2018-03-06T13:34:07.333Z,95335.45
2018-03-06T13:35:13.142Z,95330.17
2018-03-06T13:36:19.294Z,95333.05
2018-03-06T13:37:24.508Z,95327.81
2018-03-06T13:38:29.545Z,95327.70
2018-03-06T13:39:34.958Z,95325.72
2018-03-06T13:40:40.189Z,95320.23
2018-03-06T13:41:45.751Z,95324.52
2018-03-06T13:42:50.939Z,95321.87
2018-03-06T13:43:56.153Z,95321.33
2018-03-06T13:45:01.307Z,95322.50
2018-03-06T13:46:06.716Z,95324.04
2018-03-06T13:47:12.536Z,95321.56
2018-03-06T13:48:17.781Z,95316.19
2018-03-06T13:49:22.906Z,95318.30
2018-03-06T13:50:28.209Z,95324.05
2018-03-06T13:51:33.656Z,95317.02
2018-03-06T13:52:39.116Z,95308.30
2018-03-06T13:53:44.532Z,95315.20
2018-03-06T13:54:49.905Z,95314.88
2018-03-06T13:55:55.357Z,95317.36
2018-03-06T13:57:00.731Z,95321.42
2018-03-06T13:58:06.420Z,95324.56
2018-03-06T13:59:12.196Z,95323.47
2018-03-06T14:00:17.710Z,95316.27
2018-03-06T14:01:24.781Z,95314.89
2018-03-06T14:02:31.313Z,95311.98
2018-03-06T14:03:36.922Z,95307.92
2018-03-06T14:04:42.408Z,95314.78
2018-03-06T14:05:48.298Z,95315.35
2018-03-06T14:06:53.651Z,95311.71
2018-03-06T14:07:58.924Z,95315.23
2018-03-06T14:09:05.344Z,95312.28
2018-03-06T14:10:10.584Z,95325.65
2018-03-06T14:11:16.102Z,95321.93
2018-03-06T14:12:21.479Z,95321.20
2018-03-06T14:13:26.711Z,95322.50